Bloomer, Wisconsin
Current Conditions -  °F | °C
As of 8:55 AM on Monday 24 Nov 2014 (Local Time) from KY23 Reporting Station
Light Snow Light Snow  
Wind Chill: 19°   Ceiling: 900
Heat Index: 29°   Visibility: 1mi
Dew Point: 28°   Wind: 12mph
Humidity: 94%   Direction: 290°WNW
Pressure: 29.25"   Gusts: 22mph
Location:  45.1°N, 91.49°W
Report Text: KY23 241455Z AUTO 29010G19KT 1SM -SN OVC009 M02/M02 A2925 RMK AO2 P0001 60002 T10161024
Loading
Personal Weather Stations






























Interactive Weather Map New forecast layout! Learn more

10-Day Weather Forecast

Advertisements
Track Severe Weather on mobile